Woodbridge, Connecticut
Current Conditions -  °F | °C
As of 3:53 AM on Wednesday 26 Nov 2014 (Local Time) from KHVN Reporting Station
Overcast Overcast  
Wind Chill: 44°   Ceiling: 11000
Heat Index: 48°   Visibility: 10mi
Dew Point: 30°   Wind: 8mph
Humidity: 50%   Direction: 360°N
Pressure: 30.19"   Gusts: NA
Location:  41.35°N, 73.01°W
Report Text: KHVN 260853Z AUTO 36007KT 10SM OVC110 09/M01 A3019 RMK AO2 SLP224 T00891011 51015
Loading
Personal Weather Stations






























Interactive Weather Map New forecast layout! Learn more

10-Day Weather Forecast

Advertisements
Track Severe Weather on mobile